createdAt,value
2019-03-19T00:00:40.246Z,9.10
2019-03-19T00:05:48.224Z,9.40
2019-03-19T00:10:53.196Z,10.50
2019-03-19T00:15:57.889Z,8.83
2019-03-19T00:21:03.671Z,9.70
2019-03-19T00:26:08.455Z,11.53
2019-03-19T00:31:12.950Z,11.57
2019-03-19T00:36:18.662Z,11.97
2019-03-19T00:41:24.668Z,11.07
2019-03-19T00:46:28.760Z,10.00
2019-03-19T00:51:35.319Z,8.27
2019-03-19T00:56:39.795Z,12.80
2019-03-19T01:01:44.582Z,10.10
2019-03-19T01:06:51.351Z,8.13
2019-03-19T01:11:56.126Z,7.97
2019-03-19T01:17:01.492Z,10.47
2019-03-19T01:22:12.176Z,7.90
2019-03-19T01:27:18.046Z,10.77
2019-03-19T01:32:23.603Z,9.37
2019-03-19T01:37:29.084Z,10.18
2019-03-19T01:42:35.782Z,10.40
2019-03-19T01:47:40.583Z,12.23
2019-03-19T01:52:45.548Z,10.83
2019-03-19T01:57:51.184Z,10.23
2019-03-19T02:02:56.327Z,9.07
2019-03-19T02:08:01.211Z,14.50
2019-03-19T02:13:06.567Z,6.80
2019-03-19T02:18:11.060Z,8.43
2019-03-19T02:23:16.057Z,8.77
2019-03-19T02:28:21.018Z,13.90
2019-03-19T02:33:26.098Z,12.37
2019-03-19T02:38:30.570Z,9.58
2019-03-19T02:43:35.007Z,10.20
2019-03-19T02:48:40.198Z,10.03
2019-03-19T02:53:49.904Z,10.53
2019-03-19T02:58:56.488Z,8.00
2019-03-19T03:04:02.383Z,9.93
2019-03-19T03:09:08.500Z,8.53
2019-03-19T03:14:13.438Z,7.70
2019-03-19T03:19:18.443Z,7.40
2019-03-19T03:24:25.466Z,9.17
2019-03-19T03:29:30.289Z,11.60
2019-03-19T03:34:35.424Z,9.47
2019-03-19T03:39:40.446Z,8.73
2019-03-19T03:44:48.112Z,10.00
2019-03-19T03:49:53.663Z,8.47
2019-03-19T03:54:58.805Z,6.53
2019-03-19T04:00:03.673Z,8.17
2019-03-19T04:05:08.152Z,10.47
2019-03-19T04:10:13.011Z,10.53
2019-03-19T04:15:17.545Z,7.37
2019-03-19T04:20:23.036Z,7.37
2019-03-19T04:25:31.150Z,8.17
2019-03-19T04:30:35.849Z,7.53
2019-03-19T04:35:42.235Z,6.00
2019-03-19T04:40:49.537Z,10.40
2019-03-19T04:45:54.260Z,9.30
2019-03-19T04:50:59.945Z,8.57
2019-03-19T04:56:07.974Z,8.77
2019-03-19T05:01:12.739Z,10.53
2019-03-19T05:06:20.052Z,9.27
2019-03-19T05:11:24.704Z,8.17
2019-03-19T05:16:30.528Z,7.67
2019-03-19T05:21:36.830Z,8.63
2019-03-19T05:26:42.495Z,9.23
2019-03-19T05:31:50.185Z,8.37
2019-03-19T05:36:55.851Z,8.88
2019-03-19T05:42:02.574Z,6.87
2019-03-19T05:47:08.070Z,8.87
2019-03-19T05:52:13.254Z,7.53
2019-03-19T05:57:17.937Z,7.70
2019-03-19T06:02:23.420Z,9.27
2019-03-19T06:07:28.364Z,9.43
2019-03-19T06:12:44.941Z,7.93
2019-03-19T06:17:51.985Z,9.33
2019-03-19T06:22:57.799Z,11.13
2019-03-19T06:28:04.029Z,8.47
2019-03-19T06:33:08.907Z,8.80
2019-03-19T06:38:16.474Z,8.77
2019-03-19T06:43:21.907Z,9.90
2019-03-19T06:48:26.980Z,10.13
2019-03-19T06:53:31.670Z,12.10
2019-03-19T06:58:36.111Z,5.10
2019-03-19T07:03:44.341Z,5.50
2019-03-19T07:08:53.491Z,6.50
2019-03-19T07:13:58.583Z,6.83
2019-03-19T07:19:05.563Z,5.97
2019-03-19T07:24:10.289Z,6.77
2019-03-19T07:29:15.780Z,5.23
2019-03-19T07:34:24.111Z,6.57
2019-03-19T07:39:28.921Z,3.83
2019-03-19T07:44:33.338Z,4.37
2019-03-19T07:49:39.613Z,3.22
2019-03-19T07:54:44.193Z,2.70
2019-03-19T07:59:48.631Z,3.15
2019-03-19T08:04:53.567Z,4.65
2019-03-19T08:09:58.825Z,4.60
2019-03-19T08:15:04.847Z,4.05
2019-03-19T08:20:11.032Z,4.33
2019-03-19T08:25:15.826Z,3.98
2019-03-19T08:30:20.676Z,3.80
2019-03-19T08:35:25.111Z,3.50
2019-03-19T08:40:29.671Z,4.17
2019-03-19T08:45:36.998Z,5.35
2019-03-19T08:50:42.707Z,3.22
2019-03-19T08:55:50.834Z,3.15
2019-03-19T09:00:56.012Z,6.70
2019-03-19T09:06:00.718Z,5.90
2019-03-19T09:11:05.443Z,4.95
2019-03-19T09:16:10.161Z,5.55
2019-03-19T09:21:15.307Z,6.25
2019-03-19T09:26:20.372Z,5.92
2019-03-19T09:31:28.261Z,5.95
2019-03-19T09:36:33.002Z,6.50
2019-03-19T09:41:37.936Z,6.12
2019-03-19T09:46:43.019Z,7.50
2019-03-19T09:51:48.172Z,6.33
2019-03-19T09:56:52.729Z,6.15
2019-03-19T10:01:58.354Z,8.20
2019-03-19T10:07:06.372Z,4.58
2019-03-19T10:12:09.674Z,5.35
2019-03-19T10:17:14.327Z,7.83
2019-03-19T10:22:19.163Z,6.92
2019-03-19T10:27:23.880Z,8.93
2019-03-19T10:32:28.513Z,9.10
2019-03-19T10:37:33.755Z,4.37
2019-03-19T10:42:38.819Z,3.83
2019-03-19T10:47:43.577Z,3.10
2019-03-19T10:52:48.265Z,5.40
2019-03-19T10:57:55.462Z,7.63
2019-03-19T11:02:59.889Z,4.03
2019-03-19T11:08:05.062Z,5.13
2019-03-19T11:13:10.325Z,3.97
2019-03-19T11:18:15.072Z,4.43
2019-03-19T11:23:20.473Z,5.17
2019-03-19T11:28:25.236Z,7.17
2019-03-19T11:33:33.275Z,5.87
2019-03-19T11:38:38.143Z,8.40
2019-03-19T11:43:43.294Z,6.33
2019-03-19T11:48:48.597Z,5.00
2019-03-19T11:53:53.931Z,4.87
2019-03-19T11:58:59.200Z,6.47
2019-03-19T12:04:04.298Z,4.47
2019-03-19T12:09:09.252Z,9.30
2019-03-19T12:14:14.222Z,6.07
2019-03-19T12:19:19.118Z,9.80
2019-03-19T12:24:24.155Z,8.63
2019-03-19T12:29:28.582Z,4.27
2019-03-19T12:34:33.163Z,8.27
2019-03-19T12:39:37.601Z,8.73
2019-03-19T12:44:42.426Z,7.10
2019-03-19T12:49:47.627Z,3.47
2019-03-19T12:54:52.404Z,9.80
2019-03-19T12:59:57.484Z,7.23
2019-03-19T13:05:02.369Z,4.80
2019-03-19T13:10:08.647Z,4.67
2019-03-19T13:15:15.937Z,6.33
2019-03-19T13:20:20.316Z,5.43
2019-03-19T13:25:25.871Z,3.93
2019-03-19T13:30:30.285Z,4.20
2019-03-19T13:35:37.970Z,6.80
2019-03-19T13:40:42.940Z,7.67
2019-03-19T13:45:47.931Z,5.17
2019-03-19T13:50:54.335Z,6.13
2019-03-19T13:55:59.559Z,16.30
2019-03-19T14:01:04.303Z,6.20
2019-03-19T14:06:11.091Z,8.80
2019-03-19T14:11:15.596Z,6.10
2019-03-19T14:16:20.302Z,5.57
2019-03-19T14:21:24.889Z,7.30
2019-03-19T14:26:30.056Z,7.20
2019-03-19T14:31:34.387Z,6.30
2019-03-19T14:36:39.010Z,3.93
2019-03-19T14:41:45.589Z,12.23
2019-03-19T14:46:50.708Z,4.60
2019-03-19T14:51:55.182Z,8.10
2019-03-19T14:56:59.931Z,3.70
2019-03-19T15:02:04.633Z,6.17
2019-03-19T15:07:09.126Z,5.57
2019-03-19T15:12:13.679Z,3.97
2019-03-19T15:17:18.913Z,5.83
2019-03-19T15:22:32.069Z,7.50
2019-03-19T15:27:30.296Z,4.90
2019-03-19T15:32:35.837Z,9.43
2019-03-19T15:37:41.433Z,4.17
2019-03-19T15:42:46.702Z,6.20
2019-03-19T15:47:54.281Z,5.57
2019-03-19T15:52:58.677Z,7.90
2019-03-19T15:58:06.123Z,6.20
2019-03-19T16:03:11.800Z,14.53
2019-03-19T16:08:17.258Z,6.17
2019-03-19T16:13:23.582Z,7.50
2019-03-19T16:18:29.098Z,4.60
2019-03-19T16:23:34.743Z,9.00
2019-03-19T16:28:39.351Z,8.57
2019-03-19T16:33:44.403Z,5.40
2019-03-19T16:38:49.296Z,13.07
2019-03-19T16:43:54.769Z,10.67
2019-03-19T16:49:00.149Z,6.83
2019-03-19T16:54:05.055Z,6.97
2019-03-19T16:59:11.169Z,6.53
2019-03-19T17:04:16.528Z,8.33
2019-03-19T17:09:21.752Z,7.40
2019-03-19T17:14:27.101Z,8.77
2019-03-19T17:19:31.884Z,7.33
2019-03-19T17:24:36.731Z,9.30
2019-03-19T17:29:42.679Z,11.13
2019-03-19T17:34:48.293Z,7.53
2019-03-19T17:39:53.694Z,8.20
2019-03-19T17:45:00.740Z,24.57
2019-03-19T17:50:09.304Z,24.50
2019-03-19T17:55:14.505Z,35.40
2019-03-19T18:00:25.325Z,26.47
2019-03-19T18:05:34.401Z,46.43
2019-03-19T18:10:39.595Z,14.43
2019-03-19T18:15:47.338Z,9.27
2019-03-19T18:20:52.420Z,16.05
2019-03-19T18:25:57.357Z,13.07
2019-03-19T18:31:02.166Z,21.23
2019-03-19T18:36:07.042Z,32.07
2019-03-19T18:41:12.300Z,19.53
2019-03-19T18:46:18.624Z,20.43
2019-03-19T18:51:24.755Z,14.00
2019-03-19T18:56:29.670Z,17.10
2019-03-19T19:01:34.312Z,10.50
2019-03-19T19:06:39.668Z,8.40
2019-03-19T19:11:44.862Z,7.37
2019-03-19T19:16:50.328Z,6.80
2019-03-19T19:21:56.810Z,7.77
2019-03-19T19:27:03.344Z,4.60
2019-03-19T19:32:11.374Z,6.40
2019-03-19T19:37:16.772Z,3.47
2019-03-19T19:42:22.957Z,9.07
2019-03-19T19:47:29.081Z,5.00
2019-03-19T19:52:36.080Z,9.90
2019-03-19T19:57:41.314Z,7.30
2019-03-19T20:02:46.459Z,5.90
2019-03-19T20:07:50.941Z,4.30
2019-03-19T20:12:55.572Z,8.00
2019-03-19T20:18:00.437Z,5.03
2019-03-19T20:23:05.311Z,5.07
2019-03-19T20:28:10.102Z,8.17
2019-03-19T20:33:24.492Z,7.63
2019-03-19T20:38:21.879Z,5.65
2019-03-19T20:43:26.422Z,5.83
2019-03-19T20:48:32.171Z,10.00
2019-03-19T20:53:37.417Z,11.83
2019-03-19T20:58:43.714Z,4.40
2019-03-19T21:03:48.779Z,9.43
2019-03-19T21:08:53.595Z,4.77
2019-03-19T21:13:58.893Z,7.27
2019-03-19T21:19:03.693Z,4.43
2019-03-19T21:24:08.180Z,6.73
2019-03-19T21:29:13.495Z,11.67
2019-03-19T21:34:18.784Z,8.33
2019-03-19T21:39:23.620Z,6.97
2019-03-19T21:44:28.889Z,10.93
2019-03-19T21:49:34.043Z,11.00
2019-03-19T21:54:38.994Z,25.57
2019-03-19T21:59:43.350Z,11.17
2019-03-19T22:04:50.806Z,14.33
2019-03-19T22:09:55.551Z,13.20
2019-03-19T22:15:00.412Z,14.77
2019-03-19T22:20:05.353Z,17.37
2019-03-19T22:25:13.144Z,9.70
2019-03-19T22:30:18.173Z,16.40
2019-03-19T22:35:23.181Z,17.40
2019-03-19T22:40:28.236Z,9.87
2019-03-19T22:45:33.210Z,8.27
2019-03-19T22:50:37.825Z,11.27
2019-03-19T22:55:42.543Z,10.60
2019-03-19T23:00:50.245Z,8.97
2019-03-19T23:05:55.298Z,15.90
2019-03-19T23:10:59.836Z,8.70
2019-03-19T23:16:04.371Z,10.30
2019-03-19T23:21:09.576Z,10.80
2019-03-19T23:26:14.023Z,10.07
2019-03-19T23:31:18.683Z,13.20
2019-03-19T23:36:23.390Z,13.03
2019-03-19T23:41:28.733Z,12.00
2019-03-19T23:46:33.497Z,7.97
2019-03-19T23:51:38.553Z,13.90
2019-03-19T23:56:44.149Z,10.17
